sensor_id;sensor_type;location;lat;lon;timestamp;P1;durP1;ratioP1;P2;durP2;ratioP2
35128;SDS011;21301;43.626;10.580;2023-10-13T00:02:02;11.50;;;8.15;;
35128;SDS011;21301;43.626;10.580;2023-10-13T00:04:31;17.67;;;8.48;;
35128;SDS011;21301;43.626;10.580;2023-10-13T00:07:00;14.13;;;8.80;;
35128;SDS011;21301;43.626;10.580;2023-10-13T00:09:27;11.93;;;8.43;;
35128;SDS011;21301;43.626;10.580;2023-10-13T00:12:07;17.92;;;9.18;;
35128;SDS011;21301;43.626;10.580;2023-10-13T00:14:39;14.98;;;9.07;;
35128;SDS011;21301;43.626;10.580;2023-10-13T00:17:07;20.90;;;9.82;;
35128;SDS011;21301;43.626;10.580;2023-10-13T00:19:34;11.95;;;7.47;;
35128;SDS011;21301;43.626;10.580;2023-10-13T00:22:07;17.20;;;7.82;;
35128;SDS011;21301;43.626;10.580;2023-10-13T00:24:40;16.67;;;9.55;;
35128;SDS011;21301;43.626;10.580;2023-10-13T00:27:14;15.88;;;9.10;;
35128;SDS011;21301;43.626;10.580;2023-10-13T00:30:06;13.88;;;8.50;;
35128;SDS011;21301;43.626;10.580;2023-10-13T00:32:45;10.02;;;7.35;;
35128;SDS011;21301;43.626;10.580;2023-10-13T00:35:21;13.55;;;8.70;;
35128;SDS011;21301;43.626;10.580;2023-10-13T00:38:03;13.13;;;8.55;;
35128;SDS011;21301;43.626;10.580;2023-10-13T00:40:38;13.43;;;8.80;;
35128;SDS011;21301;43.626;10.580;2023-10-13T00:43:05;14.48;;;8.68;;
35128;SDS011;21301;43.626;10.580;2023-10-13T00:45:46;15.23;;;8.95;;
35128;SDS011;21301;43.626;10.580;2023-10-13T00:48:29;13.75;;;9.25;;
35128;SDS011;21301;43.626;10.580;2023-10-13T00:51:04;12.80;;;8.68;;
35128;SDS011;21301;43.626;10.580;2023-10-13T00:53:37;15.43;;;8.77;;
35128;SDS011;21301;43.626;10.580;2023-10-13T00:56:05;13.68;;;8.77;;
35128;SDS011;21301;43.626;10.580;2023-10-13T00:58:44;15.27;;;8.73;;
35128;SDS011;21301;43.626;10.580;2023-10-13T01:01:11;13.35;;;7.95;;
35128;SDS011;21301;43.626;10.580;2023-10-13T01:03:52;11.98;;;8.35;;
35128;SDS011;21301;43.626;10.580;2023-10-13T01:06:24;12.23;;;7.97;;
35128;SDS011;21301;43.626;10.580;2023-10-13T01:11:54;12.85;;;7.97;;
35128;SDS011;21301;43.626;10.580;2023-10-13T01:14:20;14.45;;;8.90;;
35128;SDS011;21301;43.626;10.580;2023-10-13T01:16:48;13.75;;;8.88;;
35128;SDS011;21301;43.626;10.580;2023-10-13T01:19:17;19.02;;;8.77;;
35128;SDS011;21301;43.626;10.580;2023-10-13T01:21:50;13.55;;;9.60;;
35128;SDS011;21301;43.626;10.580;2023-10-13T01:24:42;17.88;;;10.30;;
35128;SDS011;21301;43.626;10.580;2023-10-13T01:27:08;12.90;;;8.50;;
35128;SDS011;21301;43.626;10.580;2023-10-13T01:29:44;19.70;;;9.57;;
35128;SDS011;21301;43.626;10.580;2023-10-13T01:32:16;14.70;;;9.23;;
35128;SDS011;21301;43.626;10.580;2023-10-13T01:34:43;13.73;;;9.15;;
35128;SDS011;21301;43.626;10.580;2023-10-13T01:37:14;14.00;;;9.45;;
35128;SDS011;21301;43.626;10.580;2023-10-13T01:39:44;16.75;;;9.07;;
35128;SDS011;21301;43.626;10.580;2023-10-13T01:42:12;16.17;;;9.32;;
35128;SDS011;21301;43.626;10.580;2023-10-13T01:44:45;16.80;;;8.85;;
35128;SDS011;21301;43.626;10.580;2023-10-13T01:47:10;14.00;;;8.48;;
35128;SDS011;21301;43.626;10.580;2023-10-13T01:49:37;13.13;;;8.85;;
35128;SDS011;21301;43.626;10.580;2023-10-13T01:52:13;15.65;;;8.70;;
35128;SDS011;21301;43.626;10.580;2023-10-13T01:54:42;16.90;;;9.02;;
35128;SDS011;21301;43.626;10.580;2023-10-13T01:57:12;14.07;;;8.45;;
35128;SDS011;21301;43.626;10.580;2023-10-13T01:59:48;13.68;;;7.90;;
35128;SDS011;21301;43.626;10.580;2023-10-13T02:02:14;15.05;;;9.32;;
35128;SDS011;21301;43.626;10.580;2023-10-13T02:04:45;13.57;;;9.27;;
35128;SDS011;21301;43.626;10.580;2023-10-13T02:07:27;15.27;;;9.25;;
35128;SDS011;21301;43.626;10.580;2023-10-13T02:09:57;16.10;;;9.48;;
35128;SDS011;21301;43.626;10.580;2023-10-13T02:12:24;15.73;;;9.68;;
35128;SDS011;21301;43.626;10.580;2023-10-13T02:15:09;15.75;;;9.25;;
35128;SDS011;21301;43.626;10.580;2023-10-13T02:20:19;13.88;;;9.55;;
35128;SDS011;21301;43.626;10.580;2023-10-13T02:22:48;14.10;;;8.57;;
35128;SDS011;21301;43.626;10.580;2023-10-13T02:25:18;14.02;;;9.70;;
35128;SDS011;21301;43.626;10.580;2023-10-13T02:28:00;13.40;;;8.88;;
35128;SDS011;21301;43.626;10.580;2023-10-13T02:30:37;16.48;;;10.65;;
35128;SDS011;21301;43.626;10.580;2023-10-13T02:33:03;14.30;;;9.65;;
35128;SDS011;21301;43.626;10.580;2023-10-13T02:35:31;15.85;;;9.75;;
35128;SDS011;21301;43.626;10.580;2023-10-13T02:38:06;20.60;;;10.95;;
35128;SDS011;21301;43.626;10.580;2023-10-13T02:40:35;16.80;;;10.13;;
35128;SDS011;21301;43.626;10.580;2023-10-13T02:43:01;13.35;;;8.98;;
35128;SDS011;21301;43.626;10.580;2023-10-13T02:45:34;16.83;;;9.43;;
35128;SDS011;21301;43.626;10.580;2023-10-13T02:48:05;14.70;;;9.27;;
35128;SDS011;21301;43.626;10.580;2023-10-13T02:50:42;14.55;;;9.60;;
35128;SDS011;21301;43.626;10.580;2023-10-13T02:53:09;16.80;;;9.45;;
35128;SDS011;21301;43.626;10.580;2023-10-13T02:55:39;13.15;;;8.50;;
35128;SDS011;21301;43.626;10.580;2023-10-13T02:58:14;16.02;;;9.55;;
35128;SDS011;21301;43.626;10.580;2023-10-13T03:04:27;15.07;;;8.57;;
35128;SDS011;21301;43.626;10.580;2023-10-13T03:06:52;15.77;;;9.68;;
35128;SDS011;21301;43.626;10.580;2023-10-13T03:09:18;13.40;;;9.30;;
35128;SDS011;21301;43.626;10.580;2023-10-13T03:11:44;15.38;;;9.50;;
35128;SDS011;21301;43.626;10.580;2023-10-13T03:14:17;16.85;;;9.43;;
35128;SDS011;21301;43.626;10.580;2023-10-13T03:17:00;15.25;;;9.88;;
35128;SDS011;21301;43.626;10.580;2023-10-13T03:19:29;17.42;;;10.05;;
35128;SDS011;21301;43.626;10.580;2023-10-13T03:22:04;14.40;;;9.57;;
35128;SDS011;21301;43.626;10.580;2023-10-13T03:24:35;14.85;;;10.50;;
35128;SDS011;21301;43.626;10.580;2023-10-13T03:27:04;21.02;;;11.15;;
35128;SDS011;21301;43.626;10.580;2023-10-13T03:29:37;23.67;;;12.70;;
35128;SDS011;21301;43.626;10.580;2023-10-13T03:32:09;21.48;;;13.25;;
35128;SDS011;21301;43.626;10.580;2023-10-13T03:34:40;17.53;;;11.60;;
35128;SDS011;21301;43.626;10.580;2023-10-13T03:37:20;22.13;;;13.25;;
35128;SDS011;21301;43.626;10.580;2023-10-13T03:40:11;30.80;;;13.23;;
35128;SDS011;21301;43.626;10.580;2023-10-13T03:45:24;19.08;;;12.68;;
35128;SDS011;21301;43.626;10.580;2023-10-13T03:47:50;15.23;;;10.90;;
35128;SDS011;21301;43.626;10.580;2023-10-13T03:50:19;20.23;;;12.55;;
35128;SDS011;21301;43.626;10.580;2023-10-13T03:52:55;21.77;;;12.18;;
35128;SDS011;21301;43.626;10.580;2023-10-13T03:55:25;18.50;;;11.88;;
35128;SDS011;21301;43.626;10.580;2023-10-13T03:57:55;20.15;;;11.52;;
35128;SDS011;21301;43.626;10.580;2023-10-13T04:00:25;17.25;;;11.18;;
35128;SDS011;21301;43.626;10.580;2023-10-13T04:02:52;19.95;;;12.27;;
35128;SDS011;21301;43.626;10.580;2023-10-13T04:05:28;16.55;;;11.48;;
35128;SDS011;21301;43.626;10.580;2023-10-13T04:08:09;22.02;;;10.52;;
35128;SDS011;21301;43.626;10.580;2023-10-13T04:10:51;16.00;;;10.57;;
35128;SDS011;21301;43.626;10.580;2023-10-13T04:13:17;20.35;;;10.60;;
35128;SDS011;21301;43.626;10.580;2023-10-13T04:15:45;16.38;;;10.57;;
35128;SDS011;21301;43.626;10.580;2023-10-13T04:18:29;12.93;;;8.27;;
35128;SDS011;21301;43.626;10.580;2023-10-13T04:21:15;20.02;;;11.18;;
35128;SDS011;21301;43.626;10.580;2023-10-13T04:24:01;23.27;;;13.63;;
35128;SDS011;21301;43.626;10.580;2023-10-13T04:26:42;22.60;;;12.30;;
35128;SDS011;21301;43.626;10.580;2023-10-13T04:29:28;21.55;;;10.90;;
35128;SDS011;21301;43.626;10.580;2023-10-13T04:32:12;25.17;;;13.85;;
35128;SDS011;21301;43.626;10.580;2023-10-13T04:34:40;27.95;;;15.82;;
35128;SDS011;21301;43.626;10.580;2023-10-13T04:37:11;31.80;;;16.10;;
35128;SDS011;21301;43.626;10.580;2023-10-13T04:39:58;38.80;;;18.38;;
35128;SDS011;21301;43.626;10.580;2023-10-13T04:42:36;41.92;;;19.00;;
35128;SDS011;21301;43.626;10.580;2023-10-13T04:45:15;43.17;;;17.83;;
35128;SDS011;21301;43.626;10.580;2023-10-13T04:47:57;50.92;;;18.27;;
35128;SDS011;21301;43.626;10.580;2023-10-13T04:50:43;44.95;;;19.60;;
35128;SDS011;21301;43.626;10.580;2023-10-13T04:53:14;29.27;;;15.77;;
35128;SDS011;21301;43.626;10.580;2023-10-13T04:56:12;34.03;;;16.63;;
35128;SDS011;21301;43.626;10.580;2023-10-13T04:58:57;37.65;;;17.33;;
35128;SDS011;21301;43.626;10.580;2023-10-13T05:02:00;33.20;;;15.10;;
35128;SDS011;21301;43.626;10.580;2023-10-13T05:04:45;39.53;;;17.10;;
35128;SDS011;21301;43.626;10.580;2023-10-13T05:07:29;51.33;;;18.13;;
35128;SDS011;21301;43.626;10.580;2023-10-13T05:10:13;38.03;;;16.25;;
35128;SDS011;21301;43.626;10.580;2023-10-13T05:12:58;40.15;;;17.20;;
35128;SDS011;21301;43.626;10.580;2023-10-13T05:15:48;39.40;;;16.98;;
35128;SDS011;21301;43.626;10.580;2023-10-13T05:18:34;41.38;;;17.13;;
35128;SDS011;21301;43.626;10.580;2023-10-13T05:21:19;47.15;;;16.45;;
35128;SDS011;21301;43.626;10.580;2023-10-13T05:24:03;39.08;;;16.77;;
35128;SDS011;21301;43.626;10.580;2023-10-13T05:26:48;37.35;;;16.73;;
35128;SDS011;21301;43.626;10.580;2023-10-13T05:29:33;52.90;;;20.67;;
35128;SDS011;21301;43.626;10.580;2023-10-13T05:32:17;43.75;;;18.88;;
35128;SDS011;21301;43.626;10.580;2023-10-13T05:35:01;49.25;;;17.65;;
35128;SDS011;21301;43.626;10.580;2023-10-13T05:37:45;58.97;;;19.77;;
35128;SDS011;21301;43.626;10.580;2023-10-13T05:40:30;44.22;;;19.38;;
35128;SDS011;21301;43.626;10.580;2023-10-13T05:43:14;49.83;;;19.63;;
35128;SDS011;21301;43.626;10.580;2023-10-13T05:46:02;48.80;;;19.17;;
35128;SDS011;21301;43.626;10.580;2023-10-13T05:48:47;51.92;;;21.35;;
35128;SDS011;21301;43.626;10.580;2023-10-13T05:51:27;49.35;;;20.67;;
35128;SDS011;21301;43.626;10.580;2023-10-13T05:53:57;45.03;;;18.80;;
35128;SDS011;21301;43.626;10.580;2023-10-13T05:59:28;35.45;;;16.38;;
35128;SDS011;21301;43.626;10.580;2023-10-13T06:02:14;33.63;;;16.45;;
35128;SDS011;21301;43.626;10.580;2023-10-13T06:05:06;37.92;;;18.25;;
35128;SDS011;21301;43.626;10.580;2023-10-13T06:07:52;45.55;;;19.70;;
35128;SDS011;21301;43.626;10.580;2023-10-13T06:10:37;50.17;;;20.35;;
35128;SDS011;21301;43.626;10.580;2023-10-13T06:13:21;44.90;;;19.30;;
35128;SDS011;21301;43.626;10.580;2023-10-13T06:16:09;46.00;;;19.52;;
35128;SDS011;21301;43.626;10.580;2023-10-13T06:18:53;41.97;;;20.13;;
35128;SDS011;21301;43.626;10.580;2023-10-13T06:21:38;44.65;;;18.52;;
35128;SDS011;21301;43.626;10.580;2023-10-13T06:24:22;35.67;;;16.23;;
35128;SDS011;21301;43.626;10.580;2023-10-13T06:27:06;32.25;;;16.92;;
35128;SDS011;21301;43.626;10.580;2023-10-13T06:29:51;34.75;;;17.02;;
35128;SDS011;21301;43.626;10.580;2023-10-13T06:32:19;42.50;;;17.65;;
35128;SDS011;21301;43.626;10.580;2023-10-13T06:34:45;44.13;;;16.70;;
35128;SDS011;21301;43.626;10.580;2023-10-13T06:39:51;40.40;;;17.98;;
35128;SDS011;21301;43.626;10.580;2023-10-13T06:42:44;40.30;;;17.92;;
35128;SDS011;21301;43.626;10.580;2023-10-13T06:45:10;40.40;;;18.42;;
35128;SDS011;21301;43.626;10.580;2023-10-13T06:47:38;34.63;;;17.65;;
35128;SDS011;21301;43.626;10.580;2023-10-13T06:50:13;39.00;;;18.17;;
35128;SDS011;21301;43.626;10.580;2023-10-13T06:52:45;36.22;;;17.45;;
35128;SDS011;21301;43.626;10.580;2023-10-13T06:55:14;40.53;;;17.52;;
35128;SDS011;21301;43.626;10.580;2023-10-13T06:57:48;30.55;;;14.95;;
35128;SDS011;21301;43.626;10.580;2023-10-13T07:00:16;32.28;;;17.52;;
35128;SDS011;21301;43.626;10.580;2023-10-13T07:02:54;33.70;;;16.42;;
35128;SDS011;21301;43.626;10.580;2023-10-13T07:05:33;30.83;;;16.73;;
35128;SDS011;21301;43.626;10.580;2023-10-13T07:08:06;38.78;;;16.88;;
35128;SDS011;21301;43.626;10.580;2023-10-13T07:10:34;36.80;;;18.13;;
35128;SDS011;21301;43.626;10.580;2023-10-13T07:13:17;38.00;;;18.20;;
35128;SDS011;21301;43.626;10.580;2023-10-13T07:15:44;41.92;;;18.88;;
35128;SDS011;21301;43.626;10.580;2023-10-13T07:18:16;39.00;;;18.33;;
35128;SDS011;21301;43.626;10.580;2023-10-13T07:20:44;43.65;;;19.48;;
35128;SDS011;21301;43.626;10.580;2023-10-13T07:23:12;39.92;;;19.50;;
35128;SDS011;21301;43.626;10.580;2023-10-13T07:25:55;42.90;;;19.02;;
35128;SDS011;21301;43.626;10.580;2023-10-13T07:28:28;39.42;;;19.15;;
35128;SDS011;21301;43.626;10.580;2023-10-13T07:31:04;49.17;;;20.85;;
35128;SDS011;21301;43.626;10.580;2023-10-13T07:33:29;42.20;;;19.70;;
35128;SDS011;21301;43.626;10.580;2023-10-13T07:35:59;46.33;;;21.75;;
35128;SDS011;21301;43.626;10.580;2023-10-13T07:38:26;50.97;;;20.27;;
35128;SDS011;21301;43.626;10.580;2023-10-13T07:40:56;41.50;;;20.27;;
35128;SDS011;21301;43.626;10.580;2023-10-13T07:43:32;54.35;;;23.95;;
35128;SDS011;21301;43.626;10.580;2023-10-13T07:45:58;44.92;;;22.67;;
35128;SDS011;21301;43.626;10.580;2023-10-13T07:48:24;57.13;;;25.80;;
35128;SDS011;21301;43.626;10.580;2023-10-13T07:51:04;57.47;;;25.08;;
35128;SDS011;21301;43.626;10.580;2023-10-13T07:53:57;58.90;;;25.35;;
35128;SDS011;21301;43.626;10.580;2023-10-13T07:56:23;54.22;;;24.98;;
35128;SDS011;21301;43.626;10.580;2023-10-13T07:58:48;50.88;;;24.42;;
35128;SDS011;21301;43.626;10.580;2023-10-13T08:01:40;44.92;;;22.65;;
35128;SDS011;21301;43.626;10.580;2023-10-13T08:04:09;40.90;;;21.02;;
35128;SDS011;21301;43.626;10.580;2023-10-13T08:06:39;40.92;;;20.98;;
35128;SDS011;21301;43.626;10.580;2023-10-13T08:09:09;37.38;;;19.85;;
35128;SDS011;21301;43.626;10.580;2023-10-13T08:11:53;32.95;;;17.70;;
35128;SDS011;21301;43.626;10.580;2023-10-13T08:14:20;31.73;;;18.17;;
35128;SDS011;21301;43.626;10.580;2023-10-13T08:16:54;29.15;;;16.17;;
35128;SDS011;21301;43.626;10.580;2023-10-13T08:19:25;28.45;;;16.95;;
35128;SDS011;21301;43.626;10.580;2023-10-13T08:22:10;31.25;;;15.93;;
35128;SDS011;21301;43.626;10.580;2023-10-13T08:24:48;33.78;;;18.83;;
35128;SDS011;21301;43.626;10.580;2023-10-13T08:27:16;26.70;;;15.93;;
35128;SDS011;21301;43.626;10.580;2023-10-13T08:29:59;31.48;;;15.98;;
35128;SDS011;21301;43.626;10.580;2023-10-13T08:32:44;30.45;;;17.17;;
35128;SDS011;21301;43.626;10.580;2023-10-13T08:35:20;26.95;;;15.98;;
35128;SDS011;21301;43.626;10.580;2023-10-13T08:38:09;30.70;;;16.40;;
35128;SDS011;21301;43.626;10.580;2023-10-13T08:40:43;33.65;;;16.30;;
35128;SDS011;21301;43.626;10.580;2023-10-13T08:43:28;24.90;;;14.18;;
35128;SDS011;21301;43.626;10.580;2023-10-13T08:46:08;30.25;;;16.02;;
35128;SDS011;21301;43.626;10.580;2023-10-13T08:48:34;30.05;;;16.85;;
35128;SDS011;21301;43.626;10.580;2023-10-13T08:51:01;29.05;;;15.85;;
35128;SDS011;21301;43.626;10.580;2023-10-13T08:53:36;24.88;;;15.07;;
35128;SDS011;21301;43.626;10.580;2023-10-13T08:56:17;23.85;;;16.15;;
35128;SDS011;21301;43.626;10.580;2023-10-13T08:58:47;24.67;;;15.98;;
35128;SDS011;21301;43.626;10.580;2023-10-13T09:01:20;28.27;;;15.10;;
35128;SDS011;21301;43.626;10.580;2023-10-13T09:04:07;28.33;;;16.33;;
35128;SDS011;21301;43.626;10.580;2023-10-13T09:06:53;24.35;;;15.60;;
35128;SDS011;21301;43.626;10.580;2023-10-13T09:12:22;28.73;;;15.13;;
35128;SDS011;21301;43.626;10.580;2023-10-13T09:15:02;20.02;;;14.43;;
35128;SDS011;21301;43.626;10.580;2023-10-13T09:20:28;23.50;;;12.90;;
35128;SDS011;21301;43.626;10.580;2023-10-13T09:23:12;20.95;;;12.63;;
35128;SDS011;21301;43.626;10.580;2023-10-13T09:25:49;21.88;;;15.15;;
35128;SDS011;21301;43.626;10.580;2023-10-13T09:28:34;27.33;;;14.02;;
35128;SDS011;21301;43.626;10.580;2023-10-13T09:31:02;23.77;;;15.25;;
35128;SDS011;21301;43.626;10.580;2023-10-13T09:33:32;25.17;;;15.27;;
35128;SDS011;21301;43.626;10.580;2023-10-13T09:36:03;28.85;;;14.45;;
35128;SDS011;21301;43.626;10.580;2023-10-13T09:38:35;25.60;;;15.05;;
35128;SDS011;21301;43.626;10.580;2023-10-13T09:41:04;19.50;;;12.13;;
35128;SDS011;21301;43.626;10.580;2023-10-13T09:43:49;26.77;;;13.55;;
35128;SDS011;21301;43.626;10.580;2023-10-13T09:46:19;21.73;;;12.00;;
35128;SDS011;21301;43.626;10.580;2023-10-13T09:48:48;19.95;;;11.85;;
35128;SDS011;21301;43.626;10.580;2023-10-13T09:51:29;24.58;;;12.98;;
35128;SDS011;21301;43.626;10.580;2023-10-13T09:54:04;20.63;;;11.93;;
35128;SDS011;21301;43.626;10.580;2023-10-13T09:56:50;15.02;;;11.10;;
35128;SDS011;21301;43.626;10.580;2023-10-13T09:59:22;14.60;;;9.18;;
35128;SDS011;21301;43.626;10.580;2023-10-13T10:02:00;15.15;;;10.60;;
35128;SDS011;21301;43.626;10.580;2023-10-13T10:04:34;14.07;;;9.05;;
35128;SDS011;21301;43.626;10.580;2023-10-13T10:07:25;14.15;;;9.23;;
35128;SDS011;21301;43.626;10.580;2023-10-13T10:09:58;14.90;;;8.52;;
35128;SDS011;21301;43.626;10.580;2023-10-13T10:18:00;13.52;;;7.57;;
35128;SDS011;21301;43.626;10.580;2023-10-13T10:20:30;11.70;;;7.60;;
35128;SDS011;21301;43.626;10.580;2023-10-13T10:23:10;11.25;;;7.28;;
35128;SDS011;21301;43.626;10.580;2023-10-13T10:25:49;16.38;;;7.10;;
35128;SDS011;21301;43.626;10.580;2023-10-13T10:28:16;12.40;;;7.82;;
35128;SDS011;21301;43.626;10.580;2023-10-13T10:30:44;13.27;;;7.30;;
35128;SDS011;21301;43.626;10.580;2023-10-13T10:33:11;15.45;;;7.38;;
35128;SDS011;21301;43.626;10.580;2023-10-13T10:35:38;12.10;;;6.28;;
35128;SDS011;21301;43.626;10.580;2023-10-13T10:41:06;9.23;;;6.00;;
35128;SDS011;21301;43.626;10.580;2023-10-13T10:43:39;10.48;;;6.30;;
35128;SDS011;21301;43.626;10.580;2023-10-13T10:46:09;8.85;;;6.35;;
35128;SDS011;21301;43.626;10.580;2023-10-13T10:48:36;9.77;;;5.78;;
35128;SDS011;21301;43.626;10.580;2023-10-13T10:51:08;13.90;;;6.38;;
35128;SDS011;21301;43.626;10.580;2023-10-13T10:53:50;8.98;;;6.20;;
35128;SDS011;21301;43.626;10.580;2023-10-13T10:56:26;9.43;;;5.65;;
35128;SDS011;21301;43.626;10.580;2023-10-13T10:59:02;10.27;;;5.70;;
35128;SDS011;21301;43.626;10.580;2023-10-13T11:01:30;14.20;;;6.90;;
35128;SDS011;21301;43.626;10.580;2023-10-13T11:06:49;10.45;;;5.68;;
35128;SDS011;21301;43.626;10.580;2023-10-13T11:09:29;8.82;;;5.47;;
35128;SDS011;21301;43.626;10.580;2023-10-13T11:11:56;11.23;;;5.97;;
35128;SDS011;21301;43.626;10.580;2023-10-13T11:14:31;8.90;;;5.43;;
35128;SDS011;21301;43.626;10.580;2023-10-13T11:16:57;7.57;;;5.65;;
35128;SDS011;21301;43.626;10.580;2023-10-13T11:19:41;7.75;;;5.03;;
35128;SDS011;21301;43.626;10.580;2023-10-13T11:22:11;11.10;;;5.75;;
35128;SDS011;21301;43.626;10.580;2023-10-13T11:27:38;9.32;;;5.60;;
35128;SDS011;21301;43.626;10.580;2023-10-13T11:30:12;8.82;;;5.50;;
35128;SDS011;21301;43.626;10.580;2023-10-13T11:33:30;7.53;;;4.88;;
35128;SDS011;21301;43.626;10.580;2023-10-13T11:35:33;8.52;;;5.18;;
35128;SDS011;21301;43.626;10.580;2023-10-13T11:38:18;11.43;;;5.50;;
35128;SDS011;21301;43.626;10.580;2023-10-13T11:40:58;8.02;;;5.45;;
35128;SDS011;21301;43.626;10.580;2023-10-13T11:43:32;10.60;;;5.82;;
35128;SDS011;21301;43.626;10.580;2023-10-13T11:46:08;10.23;;;5.97;;
35128;SDS011;21301;43.626;10.580;2023-10-13T11:48:41;10.48;;;6.65;;
35128;SDS011;21301;43.626;10.580;2023-10-13T11:51:12;12.23;;;5.97;;
35128;SDS011;21301;43.626;10.580;2023-10-13T11:53:57;9.32;;;5.60;;
35128;SDS011;21301;43.626;10.580;2023-10-13T11:56:24;8.90;;;5.90;;
35128;SDS011;21301;43.626;10.580;2023-10-13T11:58:50;9.75;;;5.97;;
35128;SDS011;21301;43.626;10.580;2023-10-13T12:01:16;8.82;;;5.53;;
35128;SDS011;21301;43.626;10.580;2023-10-13T12:03:43;7.80;;;5.25;;
35128;SDS011;21301;43.626;10.580;2023-10-13T12:06:28;9.07;;;5.50;;
35128;SDS011;21301;43.626;10.580;2023-10-13T12:09:01;11.35;;;5.28;;
35128;SDS011;21301;43.626;10.580;2023-10-13T12:11:46;9.35;;;5.63;;
35128;SDS011;21301;43.626;10.580;2023-10-13T12:14:17;8.45;;;5.93;;
35128;SDS011;21301;43.626;10.580;2023-10-13T12:17:01;8.07;;;5.47;;
35128;SDS011;21301;43.626;10.580;2023-10-13T12:19:35;10.77;;;6.00;;
35128;SDS011;21301;43.626;10.580;2023-10-13T12:22:01;10.65;;;6.03;;
35128;SDS011;21301;43.626;10.580;2023-10-13T12:24:32;9.30;;;4.88;;
35128;SDS011;21301;43.626;10.580;2023-10-13T12:27:03;11.93;;;5.70;;
35128;SDS011;21301;43.626;10.580;2023-10-13T12:29:48;8.95;;;5.35;;
35128;SDS011;21301;43.626;10.580;2023-10-13T12:32:17;9.82;;;6.65;;
35128;SDS011;21301;43.626;10.580;2023-10-13T12:34:49;13.70;;;6.75;;
35128;SDS011;21301;43.626;10.580;2023-10-13T12:37:28;8.38;;;5.38;;
35128;SDS011;21301;43.626;10.580;2023-10-13T12:40:09;10.05;;;5.57;;
35128;SDS011;21301;43.626;10.580;2023-10-13T12:42:57;14.38;;;6.22;;
35128;SDS011;21301;43.626;10.580;2023-10-13T12:45:44;10.52;;;6.30;;
35128;SDS011;21301;43.626;10.580;2023-10-13T12:48:29;10.80;;;5.97;;
35128;SDS011;21301;43.626;10.580;2023-10-13T12:51:14;9.30;;;5.53;;
35128;SDS011;21301;43.626;10.580;2023-10-13T12:53:47;9.32;;;6.25;;
35128;SDS011;21301;43.626;10.580;2023-10-13T12:56:14;11.50;;;5.72;;
35128;SDS011;21301;43.626;10.580;2023-10-13T12:58:43;9.35;;;5.82;;
35128;SDS011;21301;43.626;10.580;2023-10-13T13:01:19;8.60;;;5.57;;
35128;SDS011;21301;43.626;10.580;2023-10-13T13:03:46;10.10;;;5.65;;
35128;SDS011;21301;43.626;10.580;2023-10-13T13:06:18;16.80;;;6.20;;
35128;SDS011;21301;43.626;10.580;2023-10-13T13:08:53;9.18;;;5.75;;
35128;SDS011;21301;43.626;10.580;2023-10-13T13:11:19;8.80;;;4.82;;
35128;SDS011;21301;43.626;10.580;2023-10-13T13:13:46;7.95;;;4.63;;
35128;SDS011;21301;43.626;10.580;2023-10-13T13:16:16;12.85;;;5.90;;
35128;SDS011;21301;43.626;10.580;2023-10-13T13:18:51;9.73;;;5.75;;
35128;SDS011;21301;43.626;10.580;2023-10-13T13:21:20;9.88;;;4.55;;
35128;SDS011;21301;43.626;10.580;2023-10-13T13:23:51;8.07;;;4.72;;
35128;SDS011;21301;43.626;10.580;2023-10-13T13:26:20;10.57;;;4.55;;
35128;SDS011;21301;43.626;10.580;2023-10-13T13:28:47;9.00;;;5.03;;
35128;SDS011;21301;43.626;10.580;2023-10-13T13:31:17;10.30;;;5.43;;
35128;SDS011;21301;43.626;10.580;2023-10-13T13:33:55;8.05;;;5.07;;
35128;SDS011;21301;43.626;10.580;2023-10-13T13:36:21;9.52;;;5.57;;
35128;SDS011;21301;43.626;10.580;2023-10-13T13:38:47;9.18;;;5.30;;
35128;SDS011;21301;43.626;10.580;2023-10-13T13:41:19;24.42;;;6.63;;
35128;SDS011;21301;43.626;10.580;2023-10-13T13:43:47;9.10;;;4.95;;
35128;SDS011;21301;43.626;10.580;2023-10-13T13:46:21;7.65;;;4.80;;
35128;SDS011;21301;43.626;10.580;2023-10-13T13:48:52;10.07;;;5.07;;
35128;SDS011;21301;43.626;10.580;2023-10-13T13:51:28;10.20;;;5.53;;
35128;SDS011;21301;43.626;10.580;2023-10-13T13:53:57;7.93;;;5.10;;
35128;SDS011;21301;43.626;10.580;2023-10-13T13:56:24;7.18;;;4.63;;
35128;SDS011;21301;43.626;10.580;2023-10-13T13:58:51;9.85;;;4.93;;
35128;SDS011;21301;43.626;10.580;2023-10-13T14:01:32;6.05;;;4.20;;
35128;SDS011;21301;43.626;10.580;2023-10-13T14:04:00;6.90;;;4.30;;
35128;SDS011;21301;43.626;10.580;2023-10-13T14:06:28;10.57;;;5.38;;
35128;SDS011;21301;43.626;10.580;2023-10-13T14:08:55;8.63;;;5.07;;
35128;SDS011;21301;43.626;10.580;2023-10-13T14:11:23;12.35;;;4.97;;
35128;SDS011;21301;43.626;10.580;2023-10-13T14:14:11;7.57;;;4.97;;
35128;SDS011;21301;43.626;10.580;2023-10-13T14:16:50;9.65;;;4.55;;
35128;SDS011;21301;43.626;10.580;2023-10-13T14:19:16;12.63;;;5.25;;
35128;SDS011;21301;43.626;10.580;2023-10-13T14:21:58;8.20;;;5.07;;
35128;SDS011;21301;43.626;10.580;2023-10-13T14:24:25;9.60;;;5.22;;
35128;SDS011;21301;43.626;10.580;2023-10-13T14:26:58;8.43;;;4.80;;
35128;SDS011;21301;43.626;10.580;2023-10-13T14:29:40;6.90;;;4.63;;
35128;SDS011;21301;43.626;10.580;2023-10-13T14:32:07;8.00;;;5.32;;
35128;SDS011;21301;43.626;10.580;2023-10-13T14:34:41;8.95;;;5.32;;
35128;SDS011;21301;43.626;10.580;2023-10-13T14:37:08;12.45;;;6.03;;
35128;SDS011;21301;43.626;10.580;2023-10-13T14:39:38;7.70;;;5.18;;
35128;SDS011;21301;43.626;10.580;2023-10-13T14:42:05;11.20;;;5.25;;
35128;SDS011;21301;43.626;10.580;2023-10-13T14:44:33;9.88;;;5.38;;
35128;SDS011;21301;43.626;10.580;2023-10-13T14:47:00;16.23;;;5.78;;
35128;SDS011;21301;43.626;10.580;2023-10-13T14:49:26;8.73;;;5.38;;
35128;SDS011;21301;43.626;10.580;2023-10-13T14:51:58;9.70;;;5.22;;
35128;SDS011;21301;43.626;10.580;2023-10-13T14:54:25;15.93;;;5.72;;
35128;SDS011;21301;43.626;10.580;2023-10-13T14:56:58;7.15;;;4.75;;
35128;SDS011;21301;43.626;10.580;2023-10-13T14:59:27;7.30;;;4.45;;
35128;SDS011;21301;43.626;10.580;2023-10-13T15:01:58;10.40;;;5.25;;
35128;SDS011;21301;43.626;10.580;2023-10-13T15:04:24;8.23;;;4.53;;
35128;SDS011;21301;43.626;10.580;2023-10-13T15:06:50;8.50;;;4.95;;
35128;SDS011;21301;43.626;10.580;2023-10-13T15:09:15;9.55;;;4.72;;
35128;SDS011;21301;43.626;10.580;2023-10-13T15:11:48;8.02;;;4.93;;
35128;SDS011;21301;43.626;10.580;2023-10-13T15:14:18;9.70;;;4.90;;
35128;SDS011;21301;43.626;10.580;2023-10-13T15:16:53;11.13;;;5.05;;
35128;SDS011;21301;43.626;10.580;2023-10-13T15:19:20;6.93;;;4.05;;
35128;SDS011;21301;43.626;10.580;2023-10-13T15:21:45;6.15;;;4.40;;
35128;SDS011;21301;43.626;10.580;2023-10-13T15:24:18;8.65;;;4.80;;
35128;SDS011;21301;43.626;10.580;2023-10-13T15:26:46;7.32;;;4.57;;
35128;SDS011;21301;43.626;10.580;2023-10-13T15:29:18;8.43;;;5.47;;
35128;SDS011;21301;43.626;10.580;2023-10-13T15:31:50;7.90;;;4.70;;
35128;SDS011;21301;43.626;10.580;2023-10-13T15:34:25;10.27;;;5.03;;
35128;SDS011;21301;43.626;10.580;2023-10-13T15:36:52;8.65;;;4.78;;
35128;SDS011;21301;43.626;10.580;2023-10-13T15:39:20;9.38;;;4.95;;